sensor_id;sensor_type;location;lat;lon;timestamp;temperature;humidity
26621;DHT22;14253;44.840;10.444;2023-07-20T00:02:00;24.30;99.90
26621;DHT22;14253;44.840;10.444;2023-07-20T00:04:28;24.40;99.90
26621;DHT22;14253;44.840;10.444;2023-07-20T00:06:54;24.40;99.90
26621;DHT22;14253;44.840;10.444;2023-07-20T00:09:20;24.30;99.90
26621;DHT22;14253;44.840;10.444;2023-07-20T00:11:50;24.20;99.90
26621;DHT22;14253;44.840;10.444;2023-07-20T00:14:17;24.30;99.90
26621;DHT22;14253;44.840;10.444;2023-07-20T00:16:45;24.30;99.90
26621;DHT22;14253;44.840;10.444;2023-07-20T00:19:14;24.30;99.90
26621;DHT22;14253;44.840;10.444;2023-07-20T00:21:40;24.30;99.90
26621;DHT22;14253;44.840;10.444;2023-07-20T00:24:06;24.30;99.90
26621;DHT22;14253;44.840;10.444;2023-07-20T00:26:32;24.30;99.90
26621;DHT22;14253;44.840;10.444;2023-07-20T00:28:58;24.30;99.90
26621;DHT22;14253;44.840;10.444;2023-07-20T00:31:24;24.30;99.90
26621;DHT22;14253;44.840;10.444;2023-07-20T00:33:50;24.20;99.90
26621;DHT22;14253;44.840;10.444;2023-07-20T00:36:16;24.20;99.90
26621;DHT22;14253;44.840;10.444;2023-07-20T00:38:42;24.20;99.90
26621;DHT22;14253;44.840;10.444;2023-07-20T00:41:08;24.20;99.90
26621;DHT22;14253;44.840;10.444;2023-07-20T00:43:34;24.20;99.90
26621;DHT22;14253;44.840;10.444;2023-07-20T00:46:00;24.20;99.90
26621;DHT22;14253;44.840;10.444;2023-07-20T00:48:29;24.20;99.90
26621;DHT22;14253;44.840;10.444;2023-07-20T00:50:56;24.30;99.90
26621;DHT22;14253;44.840;10.444;2023-07-20T00:53:23;24.50;99.90
26621;DHT22;14253;44.840;10.444;2023-07-20T00:55:49;24.50;99.90
26621;DHT22;14253;44.840;10.444;2023-07-20T00:58:15;24.30;99.90
26621;DHT22;14253;44.840;10.444;2023-07-20T01:00:41;24.30;99.90
26621;DHT22;14253;44.840;10.444;2023-07-20T01:03:07;24.30;99.90
26621;DHT22;14253;44.840;10.444;2023-07-20T01:05:56;24.40;99.90
26621;DHT22;14253;44.840;10.444;2023-07-20T01:11:22;24.50;99.90
26621;DHT22;14253;44.840;10.444;2023-07-20T01:13:50;24.60;99.90
26621;DHT22;14253;44.840;10.444;2023-07-20T01:16:17;24.50;99.90
26621;DHT22;14253;44.840;10.444;2023-07-20T01:18:43;24.50;99.90
26621;DHT22;14253;44.840;10.444;2023-07-20T01:21:16;24.30;99.90
26621;DHT22;14253;44.840;10.444;2023-07-20T01:27:08;24.20;99.90
26621;DHT22;14253;44.840;10.444;2023-07-20T01:32:47;23.90;99.90
26621;DHT22;14253;44.840;10.444;2023-07-20T01:35:14;23.90;99.90
26621;DHT22;14253;44.840;10.444;2023-07-20T01:37:44;23.90;99.90
26621;DHT22;14253;44.840;10.444;2023-07-20T01:40:11;23.80;99.90
26621;DHT22;14253;44.840;10.444;2023-07-20T01:42:42;23.80;99.90
26621;DHT22;14253;44.840;10.444;2023-07-20T01:45:09;23.70;99.90
26621;DHT22;14253;44.840;10.444;2023-07-20T01:47:35;23.70;99.90
26621;DHT22;14253;44.840;10.444;2023-07-20T01:50:01;23.70;99.90
26621;DHT22;14253;44.840;10.444;2023-07-20T01:52:27;23.70;99.90
26621;DHT22;14253;44.840;10.444;2023-07-20T01:54:53;23.60;99.90
26621;DHT22;14253;44.840;10.444;2023-07-20T01:57:19;23.60;99.90
26621;DHT22;14253;44.840;10.444;2023-07-20T01:59:46;23.50;99.90
26621;DHT22;14253;44.840;10.444;2023-07-20T02:02:12;23.50;99.90
26621;DHT22;14253;44.840;10.444;2023-07-20T02:04:38;23.60;99.90
26621;DHT22;14253;44.840;10.444;2023-07-20T02:07:04;23.60;99.90
26621;DHT22;14253;44.840;10.444;2023-07-20T02:09:30;23.70;99.90
26621;DHT22;14253;44.840;10.444;2023-07-20T02:11:56;23.70;99.90
26621;DHT22;14253;44.840;10.444;2023-07-20T02:14:22;23.70;99.90
26621;DHT22;14253;44.840;10.444;2023-07-20T02:16:48;23.70;99.90
26621;DHT22;14253;44.840;10.444;2023-07-20T02:19:20;23.80;99.90
26621;DHT22;14253;44.840;10.444;2023-07-20T02:21:46;23.80;99.90
26621;DHT22;14253;44.840;10.444;2023-07-20T02:24:13;23.80;99.90
26621;DHT22;14253;44.840;10.444;2023-07-20T02:26:39;23.80;99.90
26621;DHT22;14253;44.840;10.444;2023-07-20T02:29:04;23.70;99.90
26621;DHT22;14253;44.840;10.444;2023-07-20T02:31:31;23.70;99.90
26621;DHT22;14253;44.840;10.444;2023-07-20T02:33:57;23.70;99.90
26621;DHT22;14253;44.840;10.444;2023-07-20T02:36:22;23.60;99.90
26621;DHT22;14253;44.840;10.444;2023-07-20T02:38:48;23.50;99.90
26621;DHT22;14253;44.840;10.444;2023-07-20T02:41:14;23.40;99.90
26621;DHT22;14253;44.840;10.444;2023-07-20T02:43:40;23.30;99.90
26621;DHT22;14253;44.840;10.444;2023-07-20T02:46:06;23.40;99.90
26621;DHT22;14253;44.840;10.444;2023-07-20T02:48:32;23.40;99.90
26621;DHT22;14253;44.840;10.444;2023-07-20T02:50:58;23.30;99.90
26621;DHT22;14253;44.840;10.444;2023-07-20T02:53:24;23.20;99.90
26621;DHT22;14253;44.840;10.444;2023-07-20T02:55:50;23.20;99.90
26621;DHT22;14253;44.840;10.444;2023-07-20T02:58:15;23.10;99.90
26621;DHT22;14253;44.840;10.444;2023-07-20T03:00:43;23.20;99.90
26621;DHT22;14253;44.840;10.444;2023-07-20T03:03:10;23.30;99.90
26621;DHT22;14253;44.840;10.444;2023-07-20T03:05:36;23.30;99.90
26621;DHT22;14253;44.840;10.444;2023-07-20T03:08:05;23.40;99.90
26621;DHT22;14253;44.840;10.444;2023-07-20T03:10:32;23.50;99.90
26621;DHT22;14253;44.840;10.444;2023-07-20T03:12:58;23.50;99.90
26621;DHT22;14253;44.840;10.444;2023-07-20T03:15:24;23.40;99.90
26621;DHT22;14253;44.840;10.444;2023-07-20T03:17:50;23.30;99.90
26621;DHT22;14253;44.840;10.444;2023-07-20T03:20:17;23.40;99.90
26621;DHT22;14253;44.840;10.444;2023-07-20T03:22:43;23.40;99.90
26621;DHT22;14253;44.840;10.444;2023-07-20T03:25:09;23.30;99.90
26621;DHT22;14253;44.840;10.444;2023-07-20T03:27:36;23.30;99.90
26621;DHT22;14253;44.840;10.444;2023-07-20T03:30:02;23.30;99.90
26621;DHT22;14253;44.840;10.444;2023-07-20T03:32:28;23.30;99.90
26621;DHT22;14253;44.840;10.444;2023-07-20T03:34:54;23.40;99.90
26621;DHT22;14253;44.840;10.444;2023-07-20T03:37:21;23.40;99.90
26621;DHT22;14253;44.840;10.444;2023-07-20T03:39:47;23.30;99.90
26621;DHT22;14253;44.840;10.444;2023-07-20T03:42:13;23.30;99.90
26621;DHT22;14253;44.840;10.444;2023-07-20T03:44:39;23.10;99.90
26621;DHT22;14253;44.840;10.444;2023-07-20T03:47:07;23.00;99.90
26621;DHT22;14253;44.840;10.444;2023-07-20T03:49:33;23.00;99.90
26621;DHT22;14253;44.840;10.444;2023-07-20T03:52:00;23.10;99.90
26621;DHT22;14253;44.840;10.444;2023-07-20T03:54:26;23.00;99.90
26621;DHT22;14253;44.840;10.444;2023-07-20T03:56:52;23.00;99.90
26621;DHT22;14253;44.840;10.444;2023-07-20T03:59:17;23.20;99.90
26621;DHT22;14253;44.840;10.444;2023-07-20T04:01:44;23.20;99.90
26621;DHT22;14253;44.840;10.444;2023-07-20T04:04:09;23.10;99.90
26621;DHT22;14253;44.840;10.444;2023-07-20T04:06:35;23.00;99.90
26621;DHT22;14253;44.840;10.444;2023-07-20T04:09:03;22.90;99.90
26621;DHT22;14253;44.840;10.444;2023-07-20T04:11:31;22.90;99.90
26621;DHT22;14253;44.840;10.444;2023-07-20T04:13:57;22.80;99.90
26621;DHT22;14253;44.840;10.444;2023-07-20T04:16:23;22.80;99.90
26621;DHT22;14253;44.840;10.444;2023-07-20T04:18:49;22.80;99.90
26621;DHT22;14253;44.840;10.444;2023-07-20T04:21:15;22.80;99.90
26621;DHT22;14253;44.840;10.444;2023-07-20T04:23:41;22.80;99.90
26621;DHT22;14253;44.840;10.444;2023-07-20T04:26:07;22.80;99.90
26621;DHT22;14253;44.840;10.444;2023-07-20T04:28:33;22.80;99.90
26621;DHT22;14253;44.840;10.444;2023-07-20T04:31:10;22.80;99.90
26621;DHT22;14253;44.840;10.444;2023-07-20T04:33:37;22.90;99.90
26621;DHT22;14253;44.840;10.444;2023-07-20T04:36:04;22.90;99.90
26621;DHT22;14253;44.840;10.444;2023-07-20T04:38:33;22.90;99.90
26621;DHT22;14253;44.840;10.444;2023-07-20T04:41:11;23.00;99.90
26621;DHT22;14253;44.840;10.444;2023-07-20T04:43:44;23.10;99.90
26621;DHT22;14253;44.840;10.444;2023-07-20T04:46:12;23.10;99.90
26621;DHT22;14253;44.840;10.444;2023-07-20T04:48:39;23.20;99.90
26621;DHT22;14253;44.840;10.444;2023-07-20T04:51:06;23.20;99.90
26621;DHT22;14253;44.840;10.444;2023-07-20T04:53:32;23.30;99.90
26621;DHT22;14253;44.840;10.444;2023-07-20T04:55:58;23.50;99.90
26621;DHT22;14253;44.840;10.444;2023-07-20T04:58:25;23.50;99.90
26621;DHT22;14253;44.840;10.444;2023-07-20T05:00:52;23.60;99.90
26621;DHT22;14253;44.840;10.444;2023-07-20T05:03:27;23.60;99.90
26621;DHT22;14253;44.840;10.444;2023-07-20T05:06:02;23.70;99.90
26621;DHT22;14253;44.840;10.444;2023-07-20T05:08:29;23.70;99.90
26621;DHT22;14253;44.840;10.444;2023-07-20T05:10:55;23.80;99.90
26621;DHT22;14253;44.840;10.444;2023-07-20T05:13:21;23.80;99.90
26621;DHT22;14253;44.840;10.444;2023-07-20T05:15:51;23.80;99.90
26621;DHT22;14253;44.840;10.444;2023-07-20T05:18:19;23.80;99.90
26621;DHT22;14253;44.840;10.444;2023-07-20T05:20:50;23.80;99.90
26621;DHT22;14253;44.840;10.444;2023-07-20T05:23:17;23.90;99.90
26621;DHT22;14253;44.840;10.444;2023-07-20T05:25:44;24.10;99.90
26621;DHT22;14253;44.840;10.444;2023-07-20T05:28:10;24.30;99.90
26621;DHT22;14253;44.840;10.444;2023-07-20T05:30:36;24.40;99.90
26621;DHT22;14253;44.840;10.444;2023-07-20T05:33:02;24.50;99.90
26621;DHT22;14253;44.840;10.444;2023-07-20T05:35:28;24.60;99.90
26621;DHT22;14253;44.840;10.444;2023-07-20T05:37:53;24.60;99.90
26621;DHT22;14253;44.840;10.444;2023-07-20T05:40:19;24.60;99.90
26621;DHT22;14253;44.840;10.444;2023-07-20T05:42:47;24.50;99.90
26621;DHT22;14253;44.840;10.444;2023-07-20T05:45:15;24.50;99.90
26621;DHT22;14253;44.840;10.444;2023-07-20T05:47:44;24.40;99.90
26621;DHT22;14253;44.840;10.444;2023-07-20T05:50:13;24.40;99.90
26621;DHT22;14253;44.840;10.444;2023-07-20T05:52:40;24.60;99.90
26621;DHT22;14253;44.840;10.444;2023-07-20T05:55:06;24.70;99.90
26621;DHT22;14253;44.840;10.444;2023-07-20T05:57:33;24.80;99.90
26621;DHT22;14253;44.840;10.444;2023-07-20T05:59:59;24.90;99.90
26621;DHT22;14253;44.840;10.444;2023-07-20T06:02:25;25.00;99.90
26621;DHT22;14253;44.840;10.444;2023-07-20T06:04:51;24.80;99.90
26621;DHT22;14253;44.840;10.444;2023-07-20T06:07:17;25.00;99.90
26621;DHT22;14253;44.840;10.444;2023-07-20T06:09:43;24.90;99.90
26621;DHT22;14253;44.840;10.444;2023-07-20T06:12:09;24.80;99.90
26621;DHT22;14253;44.840;10.444;2023-07-20T06:14:36;24.90;99.90
26621;DHT22;14253;44.840;10.444;2023-07-20T06:17:02;24.90;99.90
26621;DHT22;14253;44.840;10.444;2023-07-20T06:19:29;25.20;99.90
26621;DHT22;14253;44.840;10.444;2023-07-20T06:21:55;25.50;99.90
26621;DHT22;14253;44.840;10.444;2023-07-20T06:24:21;25.50;99.90
26621;DHT22;14253;44.840;10.444;2023-07-20T06:26:47;25.60;99.90
26621;DHT22;14253;44.840;10.444;2023-07-20T06:29:13;25.70;99.90
26621;DHT22;14253;44.840;10.444;2023-07-20T06:31:39;25.80;99.90
26621;DHT22;14253;44.840;10.444;2023-07-20T06:34:05;25.90;99.90
26621;DHT22;14253;44.840;10.444;2023-07-20T06:36:31;26.20;99.90
26621;DHT22;14253;44.840;10.444;2023-07-20T06:38:57;26.20;99.90
26621;DHT22;14253;44.840;10.444;2023-07-20T06:41:23;26.10;99.90
26621;DHT22;14253;44.840;10.444;2023-07-20T06:43:50;26.50;99.90
26621;DHT22;14253;44.840;10.444;2023-07-20T06:46:18;26.50;99.90
26621;DHT22;14253;44.840;10.444;2023-07-20T06:48:44;26.70;99.90
26621;DHT22;14253;44.840;10.444;2023-07-20T06:51:11;26.80;99.90
26621;DHT22;14253;44.840;10.444;2023-07-20T06:53:37;27.10;99.90
26621;DHT22;14253;44.840;10.444;2023-07-20T06:56:08;27.30;99.90
26621;DHT22;14253;44.840;10.444;2023-07-20T06:58:48;27.70;99.90
26621;DHT22;14253;44.840;10.444;2023-07-20T07:01:33;27.80;99.90
26621;DHT22;14253;44.840;10.444;2023-07-20T07:04:04;28.00;99.90
26621;DHT22;14253;44.840;10.444;2023-07-20T07:06:45;28.20;99.90
26621;DHT22;14253;44.840;10.444;2023-07-20T07:09:19;28.30;99.90
26621;DHT22;14253;44.840;10.444;2023-07-20T07:11:54;28.60;99.90
26621;DHT22;14253;44.840;10.444;2023-07-20T07:14:34;28.80;99.90
26621;DHT22;14253;44.840;10.444;2023-07-20T07:17:08;29.00;99.90
26621;DHT22;14253;44.840;10.444;2023-07-20T07:19:46;29.20;99.90
26621;DHT22;14253;44.840;10.444;2023-07-20T07:22:35;29.30;99.90
26621;DHT22;14253;44.840;10.444;2023-07-20T07:25:18;29.70;99.90
26621;DHT22;14253;44.840;10.444;2023-07-20T07:28:11;30.10;99.90
26621;DHT22;14253;44.840;10.444;2023-07-20T07:30:45;30.60;99.90
26621;DHT22;14253;44.840;10.444;2023-07-20T07:33:11;30.60;99.90
26621;DHT22;14253;44.840;10.444;2023-07-20T07:35:38;30.40;99.90
26621;DHT22;14253;44.840;10.444;2023-07-20T07:38:05;30.10;99.90
26621;DHT22;14253;44.840;10.444;2023-07-20T07:40:32;30.30;99.90
26621;DHT22;14253;44.840;10.444;2023-07-20T07:43:00;30.30;99.90
26621;DHT22;14253;44.840;10.444;2023-07-20T07:45:26;30.40;99.90
26621;DHT22;14253;44.840;10.444;2023-07-20T07:47:52;30.60;99.90
26621;DHT22;14253;44.840;10.444;2023-07-20T07:50:18;30.60;99.90
26621;DHT22;14253;44.840;10.444;2023-07-20T07:52:44;30.80;99.90
26621;DHT22;14253;44.840;10.444;2023-07-20T07:55:10;30.90;99.90
26621;DHT22;14253;44.840;10.444;2023-07-20T07:57:36;31.00;99.90
26621;DHT22;14253;44.840;10.444;2023-07-20T08:00:02;31.20;99.90
26621;DHT22;14253;44.840;10.444;2023-07-20T08:02:30;30.90;99.90
26621;DHT22;14253;44.840;10.444;2023-07-20T08:04:57;31.00;99.90
26621;DHT22;14253;44.840;10.444;2023-07-20T08:07:23;31.00;99.90
26621;DHT22;14253;44.840;10.444;2023-07-20T08:09:49;31.00;99.90
26621;DHT22;14253;44.840;10.444;2023-07-20T08:12:15;31.20;99.90
26621;DHT22;14253;44.840;10.444;2023-07-20T08:14:43;31.30;99.90
26621;DHT22;14253;44.840;10.444;2023-07-20T08:17:09;31.40;99.90
26621;DHT22;14253;44.840;10.444;2023-07-20T08:19:36;31.70;99.90
26621;DHT22;14253;44.840;10.444;2023-07-20T08:22:03;32.10;99.90
26621;DHT22;14253;44.840;10.444;2023-07-20T08:24:29;31.70;99.90
26621;DHT22;14253;44.840;10.444;2023-07-20T08:26:55;31.60;99.90
26621;DHT22;14253;44.840;10.444;2023-07-20T08:29:21;31.90;99.90
26621;DHT22;14253;44.840;10.444;2023-07-20T08:31:47;32.00;99.90
26621;DHT22;14253;44.840;10.444;2023-07-20T08:34:14;32.10;99.90
26621;DHT22;14253;44.840;10.444;2023-07-20T08:36:40;32.50;99.90
26621;DHT22;14253;44.840;10.444;2023-07-20T08:39:06;32.30;99.90
26621;DHT22;14253;44.840;10.444;2023-07-20T08:41:34;32.30;99.90
26621;DHT22;14253;44.840;10.444;2023-07-20T08:44:01;32.30;99.90
26621;DHT22;14253;44.840;10.444;2023-07-20T08:46:28;32.60;99.90
26621;DHT22;14253;44.840;10.444;2023-07-20T08:48:55;32.50;99.90
26621;DHT22;14253;44.840;10.444;2023-07-20T08:51:22;32.60;99.90
26621;DHT22;14253;44.840;10.444;2023-07-20T08:53:50;32.50;99.90
26621;DHT22;14253;44.840;10.444;2023-07-20T08:56:17;32.50;99.90
26621;DHT22;14253;44.840;10.444;2023-07-20T08:58:44;32.70;99.90
26621;DHT22;14253;44.840;10.444;2023-07-20T09:01:11;32.50;99.90
26621;DHT22;14253;44.840;10.444;2023-07-20T09:03:37;32.30;99.90
26621;DHT22;14253;44.840;10.444;2023-07-20T09:06:06;32.20;99.90
26621;DHT22;14253;44.840;10.444;2023-07-20T09:08:33;32.20;99.90
26621;DHT22;14253;44.840;10.444;2023-07-20T09:10:59;32.70;99.90
26621;DHT22;14253;44.840;10.444;2023-07-20T09:13:25;33.00;99.90
26621;DHT22;14253;44.840;10.444;2023-07-20T09:16:06;33.20;99.90
26621;DHT22;14253;44.840;10.444;2023-07-20T09:18:57;33.10;99.90
26621;DHT22;14253;44.840;10.444;2023-07-20T09:21:46;33.20;99.90
26621;DHT22;14253;44.840;10.444;2023-07-20T09:24:32;33.20;99.90
26621;DHT22;14253;44.840;10.444;2023-07-20T09:27:14;33.40;99.90
26621;DHT22;14253;44.840;10.444;2023-07-20T09:30:14;33.00;99.90
26621;DHT22;14253;44.840;10.444;2023-07-20T09:33:10;33.20;99.90
26621;DHT22;14253;44.840;10.444;2023-07-20T09:36:05;33.70;99.90
26621;DHT22;14253;44.840;10.444;2023-07-20T09:39:06;34.20;99.90
26621;DHT22;14253;44.840;10.444;2023-07-20T09:41:48;34.10;99.90
26621;DHT22;14253;44.840;10.444;2023-07-20T09:44:57;34.20;99.90
26621;DHT22;14253;44.840;10.444;2023-07-20T09:47:50;34.30;99.90
26621;DHT22;14253;44.840;10.444;2023-07-20T09:50:50;34.50;99.90
26621;DHT22;14253;44.840;10.444;2023-07-20T09:53:40;34.70;99.90
26621;DHT22;14253;44.840;10.444;2023-07-20T09:56:23;34.60;99.90
26621;DHT22;14253;44.840;10.444;2023-07-20T09:59:05;34.60;99.90
26621;DHT22;14253;44.840;10.444;2023-07-20T10:01:50;34.50;99.90
26621;DHT22;14253;44.840;10.444;2023-07-20T10:04:35;34.80;99.90
26621;DHT22;14253;44.840;10.444;2023-07-20T10:07:25;34.50;99.90
26621;DHT22;14253;44.840;10.444;2023-07-20T10:10:07;34.40;99.90
26621;DHT22;14253;44.840;10.444;2023-07-20T10:12:49;34.10;99.90
26621;DHT22;14253;44.840;10.444;2023-07-20T10:15:36;34.10;99.90
26621;DHT22;14253;44.840;10.444;2023-07-20T10:18:52;34.20;99.90
26621;DHT22;14253;44.840;10.444;2023-07-20T10:21:42;34.30;99.90
26621;DHT22;14253;44.840;10.444;2023-07-20T10:24:29;34.30;99.90
26621;DHT22;14253;44.840;10.444;2023-07-20T10:27:13;34.20;99.90
26621;DHT22;14253;44.840;10.444;2023-07-20T10:29:58;34.30;99.90
26621;DHT22;14253;44.840;10.444;2023-07-20T10:32:37;34.40;99.90
26621;DHT22;14253;44.840;10.444;2023-07-20T10:35:19;34.30;99.90
26621;DHT22;14253;44.840;10.444;2023-07-20T10:38:04;33.90;99.90
26621;DHT22;14253;44.840;10.444;2023-07-20T10:40:55;33.80;99.90
26621;DHT22;14253;44.840;10.444;2023-07-20T10:43:22;34.00;99.90
26621;DHT22;14253;44.840;10.444;2023-07-20T10:45:52;33.90;99.90
26621;DHT22;14253;44.840;10.444;2023-07-20T10:48:22;34.20;99.90
26621;DHT22;14253;44.840;10.444;2023-07-20T10:51:13;34.40;99.90
26621;DHT22;14253;44.840;10.444;2023-07-20T10:53:42;34.70;99.90
26621;DHT22;14253;44.840;10.444;2023-07-20T10:56:13;34.40;99.90
26621;DHT22;14253;44.840;10.444;2023-07-20T10:58:40;34.30;99.90
26621;DHT22;14253;44.840;10.444;2023-07-20T11:01:08;34.40;99.90
26621;DHT22;14253;44.840;10.444;2023-07-20T11:03:37;34.40;99.90
26621;DHT22;14253;44.840;10.444;2023-07-20T11:08:55;34.50;99.90
26621;DHT22;14253;44.840;10.444;2023-07-20T11:11:23;34.60;99.90
26621;DHT22;14253;44.840;10.444;2023-07-20T11:19:03;35.30;99.90
26621;DHT22;14253;44.840;10.444;2023-07-20T11:21:35;35.00;99.90
26621;DHT22;14253;44.840;10.444;2023-07-20T11:24:03;35.00;99.90
26621;DHT22;14253;44.840;10.444;2023-07-20T11:26:29;35.30;99.90
26621;DHT22;14253;44.840;10.444;2023-07-20T11:28:55;35.20;99.90
26621;DHT22;14253;44.840;10.444;2023-07-20T11:31:21;35.40;99.90
26621;DHT22;14253;44.840;10.444;2023-07-20T11:33:47;35.70;99.90
26621;DHT22;14253;44.840;10.444;2023-07-20T11:36:13;35.70;99.90
26621;DHT22;14253;44.840;10.444;2023-07-20T11:38:41;35.90;99.90
26621;DHT22;14253;44.840;10.444;2023-07-20T11:41:09;35.90;99.90
26621;DHT22;14253;44.840;10.444;2023-07-20T11:43:35;35.70;99.90
26621;DHT22;14253;44.840;10.444;2023-07-20T11:46:05;35.60;99.90
26621;DHT22;14253;44.840;10.444;2023-07-20T11:48:31;35.70;99.90
26621;DHT22;14253;44.840;10.444;2023-07-20T11:50:57;35.80;99.90
26621;DHT22;14253;44.840;10.444;2023-07-20T11:53:24;35.90;99.90
26621;DHT22;14253;44.840;10.444;2023-07-20T11:55:51;36.10;99.90
26621;DHT22;14253;44.840;10.444;2023-07-20T11:58:17;35.90;99.90
26621;DHT22;14253;44.840;10.444;2023-07-20T12:00:44;36.00;99.90
26621;DHT22;14253;44.840;10.444;2023-07-20T12:03:12;36.20;99.90
26621;DHT22;14253;44.840;10.444;2023-07-20T12:05:39;36.20;99.90
26621;DHT22;14253;44.840;10.444;2023-07-20T12:08:05;35.80;99.90
26621;DHT22;14253;44.840;10.444;2023-07-20T12:10:31;35.60;99.90
26621;DHT22;14253;44.840;10.444;2023-07-20T12:13:03;35.60;99.90
26621;DHT22;14253;44.840;10.444;2023-07-20T12:15:30;35.50;99.90
26621;DHT22;14253;44.840;10.444;2023-07-20T12:17:59;35.70;99.90
26621;DHT22;14253;44.840;10.444;2023-07-20T12:22:52;36.10;99.90
26621;DHT22;14253;44.840;10.444;2023-07-20T12:25:18;36.10;99.90
26621;DHT22;14253;44.840;10.444;2023-07-20T12:27:45;36.00;99.90
26621;DHT22;14253;44.840;10.444;2023-07-20T12:30:13;35.70;99.90
26621;DHT22;14253;44.840;10.444;2023-07-20T12:32:42;35.70;99.90
26621;DHT22;14253;44.840;10.444;2023-07-20T12:35:08;35.80;99.90
26621;DHT22;14253;44.840;10.444;2023-07-20T12:37:34;36.00;99.90
26621;DHT22;14253;44.840;10.444;2023-07-20T12:40:00;36.20;99.90
26621;DHT22;14253;44.840;10.444;2023-07-20T12:42:26;36.20;99.90
26621;DHT22;14253;44.840;10.444;2023-07-20T12:44:52;36.30;99.90
26621;DHT22;14253;44.840;10.444;2023-07-20T12:47:18;36.20;99.90
26621;DHT22;14253;44.840;10.444;2023-07-20T12:49:44;36.50;99.90
26621;DHT22;14253;44.840;10.444;2023-07-20T12:52:13;36.50;99.90
26621;DHT22;14253;44.840;10.444;2023-07-20T12:54:39;36.70;99.90
26621;DHT22;14253;44.840;10.444;2023-07-20T12:57:05;36.80;99.90
26621;DHT22;14253;44.840;10.444;2023-07-20T12:59:31;36.70;99.90
26621;DHT22;14253;44.840;10.444;2023-07-20T13:01:58;36.60;99.90
26621;DHT22;14253;44.840;10.444;2023-07-20T13:04:24;36.30;99.90
26621;DHT22;14253;44.840;10.444;2023-07-20T13:06:50;36.30;99.90
26621;DHT22;14253;44.840;10.444;2023-07-20T13:09:15;36.30;99.90
26621;DHT22;14253;44.840;10.444;2023-07-20T13:11:41;36.60;99.90
26621;DHT22;14253;44.840;10.444;2023-07-20T13:14:07;36.40;99.90
26621;DHT22;14253;44.840;10.444;2023-07-20T13:16:34;36.20;99.90
26621;DHT22;14253;44.840;10.444;2023-07-20T13:19:01;36.30;99.90
26621;DHT22;14253;44.840;10.444;2023-07-20T13:21:27;36.50;99.90
26621;DHT22;14253;44.840;10.444;2023-07-20T13:23:53;36.40;99.90
26621;DHT22;14253;44.840;10.444;2023-07-20T13:26:19;36.60;99.90
26621;DHT22;14253;44.840;10.444;2023-07-20T13:28:45;36.50;99.90
26621;DHT22;14253;44.840;10.444;2023-07-20T13:31:11;36.30;99.90
26621;DHT22;14253;44.840;10.444;2023-07-20T13:33:37;36.40;99.90
26621;DHT22;14253;44.840;10.444;2023-07-20T13:36:03;36.30;99.90
26621;DHT22;14253;44.840;10.444;2023-07-20T13:38:31;36.60;99.90
26621;DHT22;14253;44.840;10.444;2023-07-20T13:40:57;36.90;99.90
26621;DHT22;14253;44.840;10.444;2023-07-20T13:43:23;36.80;99.90
26621;DHT22;14253;44.840;10.444;2023-07-20T13:45:50;36.80;99.90
26621;DHT22;14253;44.840;10.444;2023-07-20T13:48:16;36.50;99.90
26621;DHT22;14253;44.840;10.444;2023-07-20T13:50:45;36.20;99.90
26621;DHT22;14253;44.840;10.444;2023-07-20T13:53:11;36.30;99.90
26621;DHT22;14253;44.840;10.444;2023-07-20T13:55:38;36.50;99.90
26621;DHT22;14253;44.840;10.444;2023-07-20T13:58:04;36.60;99.90
26621;DHT22;14253;44.840;10.444;2023-07-20T14:00:30;36.70;99.90
26621;DHT22;14253;44.840;10.444;2023-07-20T14:03:01;36.40;99.90
26621;DHT22;14253;44.840;10.444;2023-07-20T14:05:27;36.30;99.90
26621;DHT22;14253;44.840;10.444;2023-07-20T14:07:54;36.30;99.90
26621;DHT22;14253;44.840;10.444;2023-07-20T14:10:20;36.30;99.90
26621;DHT22;14253;44.840;10.444;2023-07-20T14:12:46;36.30;99.90
26621;DHT22;14253;44.840;10.444;2023-07-20T14:15:12;36.50;99.90
26621;DHT22;14253;44.840;10.444;2023-07-20T14:17:38;36.80;99.90
26621;DHT22;14253;44.840;10.444;2023-07-20T14:20:04;36.70;99.90
26621;DHT22;14253;44.840;10.444;2023-07-20T14:22:32;36.50;99.90
26621;DHT22;14253;44.840;10.444;2023-07-20T14:24:58;36.40;99.90
26621;DHT22;14253;44.840;10.444;2023-07-20T14:27:24;36.50;99.90
26621;DHT22;14253;44.840;10.444;2023-07-20T14:29:50;36.80;99.90
26621;DHT22;14253;44.840;10.444;2023-07-20T14:32:16;36.90;99.90
26621;DHT22;14253;44.840;10.444;2023-07-20T14:34:42;37.10;99.90
26621;DHT22;14253;44.840;10.444;2023-07-20T14:37:09;37.00;99.90
26621;DHT22;14253;44.840;10.444;2023-07-20T14:39:35;37.10;99.90
26621;DHT22;14253;44.840;10.444;2023-07-20T14:42:01;37.00;99.90
26621;DHT22;14253;44.840;10.444;2023-07-20T14:44:29;37.00;99.90
26621;DHT22;14253;44.840;10.444;2023-07-20T14:46:55;37.00;99.90
26621;DHT22;14253;44.840;10.444;2023-07-20T14:49:21;37.10;99.90
26621;DHT22;14253;44.840;10.444;2023-07-20T14:51:47;37.20;99.90
26621;DHT22;14253;44.840;10.444;2023-07-20T14:54:13;37.20;99.90
26621;DHT22;14253;44.840;10.444;2023-07-20T14:56:45;37.20;99.90
26621;DHT22;14253;44.840;10.444;2023-07-20T14:59:14;37.10;99.90
26621;DHT22;14253;44.840;10.444;2023-07-20T15:01:39;36.90;99.90
26621;DHT22;14253;44.840;10.444;2023-07-20T15:04:06;36.90;99.90
26621;DHT22;14253;44.840;10.444;2023-07-20T15:06:31;37.00;99.90
26621;DHT22;14253;44.840;10.444;2023-07-20T15:08:57;37.20;99.90
26621;DHT22;14253;44.840;10.444;2023-07-20T15:11:23;37.20;99.90
26621;DHT22;14253;44.840;10.444;2023-07-20T15:13:49;37.00;99.90
26621;DHT22;14253;44.840;10.444;2023-07-20T15:16:15;37.00;99.90
26621;DHT22;14253;44.840;10.444;2023-07-20T15:18:41;37.00;99.90
26621;DHT22;14253;44.840;10.444;2023-07-20T15:21:09;37.00;99.90
26621;DHT22;14253;44.840;10.444;2023-07-20T15:23:34;37.20;99.90
26621;DHT22;14253;44.840;10.444;2023-07-20T15:26:00;36.90;99.90
26621;DHT22;14253;44.840;10.444;2023-07-20T15:28:26;36.60;99.90
26621;DHT22;14253;44.840;10.444;2023-07-20T15:31:02;36.60;99.90
26621;DHT22;14253;44.840;10.444;2023-07-20T15:33:29;36.70;99.90
26621;DHT22;14253;44.840;10.444;2023-07-20T15:35:55;36.80;99.90
26621;DHT22;14253;44.840;10.444;2023-07-20T15:38:22;36.80;99.90
26621;DHT22;14253;44.840;10.444;2023-07-20T15:40:47;36.80;99.90
26621;DHT22;14253;44.840;10.444;2023-07-20T15:43:16;37.00;99.90
26621;DHT22;14253;44.840;10.444;2023-07-20T15:45:47;37.20;99.90
26621;DHT22;14253;44.840;10.444;2023-07-20T15:48:16;37.40;99.90